Africa, Pennsylvania
Current Conditions -  °F | °C
As of 8:53 AM on Saturday 20 Dec 2014 (Local Time) from KHGR Reporting Station
Clear Clear  
Wind Chill: -3°   Ceiling: Unl
Heat Index: -3°   Visibility: 10mi
Dew Point: -7°   Wind: 3mph
Humidity: 75%   Direction: 50°NE
Pressure: 30.28"   Gusts: NA
Location:  39.8035°N, 77.9346°W
Report Text: KHGR 201353Z 05003KT 10SM CLR M03/M07 A3028 RMK AO2 SLP273 T10331072
Loading
Personal Weather Stations






























Interactive Weather Map New forecast layout! Learn more

10-Day Weather Forecast

Advertisements
Track Severe Weather on mobile